createdAt,value
2018-09-14T00:01:32.726Z,12.46
2018-09-14T00:07:27.714Z,11.81
2018-09-14T00:13:22.718Z,11.08
2018-09-14T00:19:17.729Z,11.77
2018-09-14T00:25:12.727Z,11.43
2018-09-14T00:31:07.788Z,10.89
2018-09-14T00:37:02.736Z,12.67
2018-09-14T00:42:57.794Z,11.52
2018-09-14T00:48:52.746Z,11.66
2018-09-14T00:54:47.742Z,12.15
2018-09-14T01:00:42.753Z,11.99
2018-09-14T01:06:37.769Z,11.94
2018-09-14T01:12:32.768Z,12.18
2018-09-14T01:18:27.759Z,12.19
2018-09-14T01:24:22.768Z,13.66
2018-09-14T01:30:17.842Z,11.9
2018-09-14T01:36:12.843Z,12.62
2018-09-14T01:42:07.799Z,12.2
2018-09-14T01:48:02.799Z,12.42
2018-09-14T01:53:57.798Z,12.02
2018-09-14T01:59:52.872Z,12.69
2018-09-14T02:05:47.813Z,13.87
2018-09-14T02:11:42.808Z,12.38
2018-09-14T02:17:37.848Z,12.37
2018-09-14T02:23:32.815Z,12.9
2018-09-14T02:29:27.816Z,12.16
2018-09-14T02:35:22.852Z,12.08
2018-09-14T02:41:17.818Z,13.22
2018-09-14T02:47:12.835Z,12.4
2018-09-14T02:53:07.888Z,13.52
2018-09-14T02:59:02.834Z,13.41
2018-09-14T03:04:57.840Z,12.68
2018-09-14T03:10:52.859Z,13.04
2018-09-14T03:16:47.862Z,14.21
2018-09-14T03:22:42.869Z,13.72
2018-09-14T03:28:37.901Z,13.23
2018-09-14T03:34:32.869Z,13.6
2018-09-14T03:40:27.901Z,13.65
2018-09-14T03:46:22.920Z,13.75
2018-09-14T03:52:17.901Z,13.33
2018-09-14T03:58:12.901Z,14.58
2018-09-14T04:04:07.906Z,12.86
2018-09-14T04:10:02.923Z,13.24
2018-09-14T04:15:57.909Z,13.73
2018-09-14T04:21:53.005Z,12.77
2018-09-14T04:27:47.904Z,13.46
2018-09-14T04:33:42.915Z,13.66
2018-09-14T04:39:37.901Z,14.09
2018-09-14T04:45:32.969Z,12.57
2018-09-14T04:51:28.020Z,12.81
2018-09-14T04:57:23.010Z,15.02
2018-09-14T05:03:18.004Z,13.5
2018-09-14T05:09:12.950Z,13.66
2018-09-14T05:15:08.170Z,14.61
2018-09-14T05:21:02.945Z,19.38
2018-09-14T05:26:57.975Z,12.3
2018-09-14T05:32:52.963Z,12.56
2018-09-14T05:38:47.970Z,13.47
2018-09-14T05:44:42.960Z,12.23
2018-09-14T05:50:38.031Z,12.65
2018-09-14T05:56:32.983Z,14.21
2018-09-14T06:02:27.973Z,15.09
2018-09-14T06:08:22.987Z,14.5
2018-09-14T06:14:17.994Z,13.08
2018-09-14T06:20:13.064Z,15.95
2018-09-14T06:26:08.026Z,16.46
2018-09-14T06:32:03.057Z,17.93
2018-09-14T06:37:58.008Z,16.94
2018-09-14T06:43:53.017Z,15.1
2018-09-14T06:49:48.019Z,13.23
2018-09-14T06:55:43.035Z,13.48
2018-09-14T07:01:38.074Z,15.19
2018-09-14T07:07:33.065Z,15.01
2018-09-14T07:13:28.045Z,15.09
2018-09-14T07:19:23.050Z,15.67
2018-09-14T07:25:18.073Z,15.66
2018-09-14T07:31:13.101Z,16.81
2018-09-14T07:37:08.060Z,17.71
2018-09-14T07:43:03.094Z,17.42
2018-09-14T07:48:58.084Z,16.97
2018-09-14T07:54:53.069Z,14.3
2018-09-14T08:00:48.080Z,13.37
2018-09-14T08:06:43.109Z,15.7
2018-09-14T08:12:38.071Z,16.21
2018-09-14T08:18:33.077Z,15.88
2018-09-14T08:24:28.078Z,13.99
2018-09-14T08:30:23.134Z,16.52
2018-09-14T08:36:18.103Z,14.27
2018-09-14T08:42:13.088Z,16.27
2018-09-14T08:48:08.191Z,13.5
2018-09-14T08:54:03.115Z,15.99
2018-09-14T08:59:58.176Z,12.29
2018-09-14T09:05:53.135Z,11.82
2018-09-14T09:11:48.159Z,12.93
2018-09-14T09:17:43.151Z,12.03
2018-09-14T09:23:38.143Z,10.71
2018-09-14T09:29:33.224Z,11.41
2018-09-14T09:35:28.132Z,9.91
2018-09-14T09:41:23.174Z,8.66
2018-09-14T09:47:18.143Z,8.8
2018-09-14T09:53:13.184Z,3.46
2018-09-14T09:59:08.202Z,7.53
2018-09-14T10:05:03.439Z,6.58
2018-09-14T10:10:58.192Z,5.53
2018-09-14T10:16:53.212Z,5.48
2018-09-14T10:22:48.238Z,5.76
2018-09-14T10:28:43.268Z,5.95
2018-09-14T10:34:38.189Z,5.77
2018-09-14T10:40:33.267Z,4.94
2018-09-14T10:46:28.212Z,5.04
2018-09-14T10:52:23.240Z,4.83
2018-09-14T10:58:18.230Z,5.33
2018-09-14T11:04:13.244Z,4.7
2018-09-14T11:10:08.312Z,5.32
2018-09-14T11:16:03.264Z,4.22
2018-09-14T11:21:58.235Z,3.68
2018-09-14T11:27:53.291Z,4.05
2018-09-14T11:33:48.265Z,4.21
2018-09-14T11:39:43.261Z,4.94
2018-09-14T11:45:38.265Z,4.31
2018-09-14T11:51:33.282Z,3.76
2018-09-14T11:57:28.305Z,4.8
2018-09-14T12:03:23.276Z,4.85
2018-09-14T12:09:18.302Z,4.52
2018-09-14T12:15:13.347Z,4.68
2018-09-14T12:21:08.288Z,5.35
2018-09-14T12:27:03.310Z,4.37
2018-09-14T12:32:58.404Z,3.99
2018-09-14T12:38:53.374Z,3.75
2018-09-14T12:44:48.440Z,3.01
2018-09-14T12:50:43.346Z,3.5
2018-09-14T12:56:38.334Z,3.6
2018-09-14T13:02:33.326Z,3.72
2018-09-14T13:08:28.427Z,3.23
2018-09-14T13:14:23.370Z,3.18
2018-09-14T13:20:19.059Z,4.41
2018-09-14T13:26:13.355Z,4.56
2018-09-14T13:32:08.372Z,4.51
2018-09-14T13:38:03.365Z,4.12
2018-09-14T13:43:58.390Z,4.32
2018-09-14T13:49:53.443Z,4.29
2018-09-14T13:55:48.369Z,4.31
2018-09-14T14:01:43.464Z,3.49
2018-09-14T14:07:38.368Z,3.7
2018-09-14T14:13:33.386Z,3.53
2018-09-14T14:19:28.397Z,3.95
2018-09-14T14:25:23.409Z,4.36
2018-09-14T14:31:18.484Z,4.1
2018-09-14T14:37:13.454Z,4.2
2018-09-14T14:43:08.439Z,3.88
2018-09-14T14:49:03.456Z,4.91
2018-09-14T14:54:58.430Z,5.48
2018-09-14T15:00:53.436Z,4.86
2018-09-14T15:06:48.430Z,4.71
2018-09-14T15:12:43.506Z,4.71
2018-09-14T15:18:38.454Z,4.54
2018-09-14T15:24:33.460Z,4.62
2018-09-14T15:30:29.085Z,4.93
2018-09-14T15:36:23.473Z,5.21
2018-09-14T15:42:18.518Z,5.01
2018-09-14T15:48:13.482Z,15.25
2018-09-14T15:54:08.509Z,5.12
2018-09-14T16:00:03.531Z,4.91
2018-09-14T16:05:58.499Z,4.55
2018-09-14T16:11:53.520Z,4.67
2018-09-14T16:17:48.520Z,4.8
2018-09-14T16:23:43.511Z,4.93
2018-09-14T16:29:38.522Z,4.52
2018-09-14T16:35:33.566Z,4.98
2018-09-14T16:41:28.529Z,4.64
2018-09-14T16:47:23.574Z,5.26
2018-09-14T16:53:18.563Z,5.08
2018-09-14T16:59:13.540Z,4.89
2018-09-14T17:05:08.556Z,4.79
2018-09-14T17:11:03.529Z,5.13
2018-09-14T17:16:58.677Z,5.48
2018-09-14T17:22:53.547Z,4.51
2018-09-14T17:28:48.561Z,4.77
2018-09-14T17:34:43.568Z,7.53
2018-09-14T17:40:38.591Z,6.17
2018-09-14T17:46:33.591Z,6.17
2018-09-14T17:52:28.571Z,12.4
2018-09-14T17:58:23.608Z,28.19
2018-09-14T18:04:18.620Z,7.3
2018-09-14T18:10:13.599Z,6.56
2018-09-14T18:16:08.601Z,7.3
2018-09-14T18:22:03.603Z,5.75
2018-09-14T18:27:58.694Z,5.64
2018-09-14T18:33:53.627Z,6.09
2018-09-14T18:39:48.626Z,6.9
2018-09-14T18:45:43.685Z,7.19
2018-09-14T18:51:38.640Z,7.56
2018-09-14T18:57:33.666Z,5.84
2018-09-14T19:03:28.626Z,9.8
2018-09-14T19:09:23.641Z,8.68
2018-09-14T19:15:18.669Z,7.18
2018-09-14T19:21:13.695Z,7
2018-09-14T19:27:08.655Z,7.25
2018-09-14T19:33:03.669Z,8.69
2018-09-14T19:38:58.655Z,7.08
2018-09-14T19:44:53.695Z,8.55
2018-09-14T19:50:48.685Z,9.47
2018-09-14T19:56:43.701Z,6.96
2018-09-14T20:02:38.687Z,6.99
2018-09-14T20:08:33.692Z,6.51
2018-09-14T20:14:28.762Z,5.77
2018-09-14T20:20:23.703Z,7.13
2018-09-14T20:26:18.702Z,7.62
2018-09-14T20:32:13.713Z,6.59
2018-09-14T20:38:09.327Z,5.95
2018-09-14T20:44:03.733Z,8.73
2018-09-14T20:49:58.734Z,7.39
2018-09-14T20:55:53.740Z,6.12
2018-09-14T21:01:48.736Z,6.91
2018-09-14T21:07:43.756Z,8.31
2018-09-14T21:13:38.742Z,6.37
2018-09-14T21:19:33.749Z,6.41
2018-09-14T21:25:28.773Z,6.14
2018-09-14T21:31:23.756Z,6.21
2018-09-14T21:37:18.761Z,6.71
2018-09-14T21:43:13.781Z,7.29
2018-09-14T21:49:08.761Z,7.12
2018-09-14T21:55:03.843Z,6.2
2018-09-14T22:00:58.837Z,7
2018-09-14T22:06:53.857Z,6.64
2018-09-14T22:12:48.807Z,5.76
2018-09-14T22:18:43.780Z,6.33
2018-09-14T22:24:38.824Z,7.19
2018-09-14T22:30:33.832Z,6.64
2018-09-14T22:36:28.863Z,6.53
2018-09-14T22:42:23.834Z,5.78
2018-09-14T22:48:18.823Z,6.43
2018-09-14T22:54:13.827Z,6.13
2018-09-14T23:00:08.887Z,5.87
2018-09-14T23:06:03.818Z,6.09
2018-09-14T23:11:58.835Z,5.92
2018-09-14T23:17:53.928Z,6.01
2018-09-14T23:23:48.836Z,6.11
2018-09-14T23:29:43.876Z,6.77
2018-09-14T23:35:38.907Z,6.06
2018-09-14T23:41:33.870Z,5.85
2018-09-14T23:47:28.864Z,6.29
2018-09-14T23:53:23.895Z,6.4
2018-09-14T23:59:18.884Z,5.69
